sensor_id;sensor_type;location;lat;lon;timestamp;temperature;humidity
23827;DHT22;12094;50.822;4.376;2022-10-23T00:01:47;16.50;99.90
23827;DHT22;12094;50.822;4.376;2022-10-23T00:04:21;16.50;99.90
23827;DHT22;12094;50.822;4.376;2022-10-23T00:06:48;16.50;99.90
23827;DHT22;12094;50.822;4.376;2022-10-23T00:09:18;16.50;99.90
23827;DHT22;12094;50.822;4.376;2022-10-23T00:11:47;16.50;99.90
23827;DHT22;12094;50.822;4.376;2022-10-23T00:14:15;16.50;99.90
23827;DHT22;12094;50.822;4.376;2022-10-23T00:16:42;16.50;99.90
23827;DHT22;12094;50.822;4.376;2022-10-23T00:19:09;16.60;99.90
23827;DHT22;12094;50.822;4.376;2022-10-23T00:21:37;16.60;99.90
23827;DHT22;12094;50.822;4.376;2022-10-23T00:24:05;16.60;99.90
23827;DHT22;12094;50.822;4.376;2022-10-23T00:26:32;16.60;99.90
23827;DHT22;12094;50.822;4.376;2022-10-23T00:29:00;16.60;99.90
23827;DHT22;12094;50.822;4.376;2022-10-23T00:31:27;16.60;99.90
23827;DHT22;12094;50.822;4.376;2022-10-23T00:33:54;16.50;99.90
23827;DHT22;12094;50.822;4.376;2022-10-23T00:36:21;16.50;99.90
23827;DHT22;12094;50.822;4.376;2022-10-23T00:38:49;16.50;99.90
23827;DHT22;12094;50.822;4.376;2022-10-23T00:41:26;16.40;99.90
23827;DHT22;12094;50.822;4.376;2022-10-23T00:43:58;16.30;99.90
23827;DHT22;12094;50.822;4.376;2022-10-23T00:46:26;16.30;99.90
23827;DHT22;12094;50.822;4.376;2022-10-23T00:48:56;16.20;99.90
23827;DHT22;12094;50.822;4.376;2022-10-23T00:51:24;16.20;99.90
23827;DHT22;12094;50.822;4.376;2022-10-23T00:53:56;16.20;99.90
23827;DHT22;12094;50.822;4.376;2022-10-23T00:56:43;16.10;99.90
23827;DHT22;12094;50.822;4.376;2022-10-23T00:59:11;16.10;99.90
23827;DHT22;12094;50.822;4.376;2022-10-23T01:01:39;16.10;99.90
23827;DHT22;12094;50.822;4.376;2022-10-23T01:04:07;16.00;99.90
23827;DHT22;12094;50.822;4.376;2022-10-23T01:09:40;15.90;99.90
23827;DHT22;12094;50.822;4.376;2022-10-23T01:12:28;16.00;99.90
23827;DHT22;12094;50.822;4.376;2022-10-23T01:15:14;16.00;99.90
23827;DHT22;12094;50.822;4.376;2022-10-23T01:18:25;16.00;99.90
23827;DHT22;12094;50.822;4.376;2022-10-23T01:21:16;16.00;99.90
23827;DHT22;12094;50.822;4.376;2022-10-23T01:29:37;16.00;99.90
23827;DHT22;12094;50.822;4.376;2022-10-23T01:34:59;16.00;99.90
23827;DHT22;12094;50.822;4.376;2022-10-23T01:37:34;16.00;99.90
23827;DHT22;12094;50.822;4.376;2022-10-23T01:40:05;15.90;99.90
23827;DHT22;12094;50.822;4.376;2022-10-23T01:42:40;15.90;99.90
23827;DHT22;12094;50.822;4.376;2022-10-23T01:48:02;16.10;99.90
23827;DHT22;12094;50.822;4.376;2022-10-23T01:50:30;16.10;99.90
23827;DHT22;12094;50.822;4.376;2022-10-23T01:53:02;16.10;99.90
23827;DHT22;12094;50.822;4.376;2022-10-23T01:55:31;16.10;99.90
23827;DHT22;12094;50.822;4.376;2022-10-23T01:58:03;16.10;99.90
23827;DHT22;12094;50.822;4.376;2022-10-23T02:00:41;16.00;99.90
23827;DHT22;12094;50.822;4.376;2022-10-23T02:03:11;15.90;99.90
23827;DHT22;12094;50.822;4.376;2022-10-23T02:05:39;15.90;99.90
23827;DHT22;12094;50.822;4.376;2022-10-23T02:08:07;15.90;99.90
23827;DHT22;12094;50.822;4.376;2022-10-23T02:16:39;15.90;99.90
23827;DHT22;12094;50.822;4.376;2022-10-23T02:19:23;15.90;99.90
23827;DHT22;12094;50.822;4.376;2022-10-23T02:22:13;15.90;99.90
23827;DHT22;12094;50.822;4.376;2022-10-23T02:24:48;15.90;99.90
23827;DHT22;12094;50.822;4.376;2022-10-23T02:27:25;15.80;99.90
23827;DHT22;12094;50.822;4.376;2022-10-23T02:30:03;15.90;99.90
23827;DHT22;12094;50.822;4.376;2022-10-23T02:32:33;15.80;99.90
23827;DHT22;12094;50.822;4.376;2022-10-23T02:35:02;15.80;99.90
23827;DHT22;12094;50.822;4.376;2022-10-23T02:37:30;15.80;99.90
23827;DHT22;12094;50.822;4.376;2022-10-23T02:40:00;15.80;99.90
23827;DHT22;12094;50.822;4.376;2022-10-23T02:42:58;15.90;99.90
23827;DHT22;12094;50.822;4.376;2022-10-23T02:45:46;15.90;99.90
23827;DHT22;12094;50.822;4.376;2022-10-23T02:48:36;15.90;99.90
23827;DHT22;12094;50.822;4.376;2022-10-23T02:51:35;15.90;99.90
23827;DHT22;12094;50.822;4.376;2022-10-23T02:54:19;15.80;99.90
23827;DHT22;12094;50.822;4.376;2022-10-23T02:56:54;15.80;99.90
23827;DHT22;12094;50.822;4.376;2022-10-23T02:59:34;15.80;99.90
23827;DHT22;12094;50.822;4.376;2022-10-23T03:02:07;15.80;99.90
23827;DHT22;12094;50.822;4.376;2022-10-23T03:04:39;15.90;99.90
23827;DHT22;12094;50.822;4.376;2022-10-23T03:07:13;15.80;99.90
23827;DHT22;12094;50.822;4.376;2022-10-23T03:09:42;15.80;99.90
23827;DHT22;12094;50.822;4.376;2022-10-23T03:12:09;15.80;99.90
23827;DHT22;12094;50.822;4.376;2022-10-23T03:14:37;15.80;99.90
23827;DHT22;12094;50.822;4.376;2022-10-23T03:17:05;15.80;99.90
23827;DHT22;12094;50.822;4.376;2022-10-23T03:19:32;15.90;99.90
23827;DHT22;12094;50.822;4.376;2022-10-23T03:22:01;15.90;99.90
23827;DHT22;12094;50.822;4.376;2022-10-23T03:24:29;15.80;99.90
23827;DHT22;12094;50.822;4.376;2022-10-23T03:26:56;15.90;99.90
23827;DHT22;12094;50.822;4.376;2022-10-23T03:29:29;16.00;99.90
23827;DHT22;12094;50.822;4.376;2022-10-23T03:31:57;15.90;99.90
23827;DHT22;12094;50.822;4.376;2022-10-23T03:34:24;15.90;99.90
23827;DHT22;12094;50.822;4.376;2022-10-23T03:36:55;15.80;99.90
23827;DHT22;12094;50.822;4.376;2022-10-23T03:39:22;15.70;99.90
23827;DHT22;12094;50.822;4.376;2022-10-23T03:41:50;15.60;99.90
23827;DHT22;12094;50.822;4.376;2022-10-23T03:44:19;15.70;99.90
23827;DHT22;12094;50.822;4.376;2022-10-23T03:46:46;15.70;99.90
23827;DHT22;12094;50.822;4.376;2022-10-23T03:49:14;15.70;99.90
23827;DHT22;12094;50.822;4.376;2022-10-23T03:51:43;15.80;99.90
23827;DHT22;12094;50.822;4.376;2022-10-23T03:54:13;15.70;99.90
23827;DHT22;12094;50.822;4.376;2022-10-23T03:56:43;15.70;99.90
23827;DHT22;12094;50.822;4.376;2022-10-23T03:59:11;15.70;99.90
23827;DHT22;12094;50.822;4.376;2022-10-23T04:01:39;15.70;99.90
23827;DHT22;12094;50.822;4.376;2022-10-23T04:04:06;15.60;99.90
23827;DHT22;12094;50.822;4.376;2022-10-23T04:06:34;15.60;99.90
23827;DHT22;12094;50.822;4.376;2022-10-23T04:09:03;15.60;99.90
23827;DHT22;12094;50.822;4.376;2022-10-23T04:11:31;15.50;99.90
23827;DHT22;12094;50.822;4.376;2022-10-23T04:13:58;15.60;99.90
23827;DHT22;12094;50.822;4.376;2022-10-23T04:16:25;15.50;99.90
23827;DHT22;12094;50.822;4.376;2022-10-23T04:18:53;15.40;99.90
23827;DHT22;12094;50.822;4.376;2022-10-23T04:21:21;15.40;99.90
23827;DHT22;12094;50.822;4.376;2022-10-23T04:23:48;15.50;99.90
23827;DHT22;12094;50.822;4.376;2022-10-23T04:26:16;15.50;99.90
23827;DHT22;12094;50.822;4.376;2022-10-23T04:28:43;15.60;99.90
23827;DHT22;12094;50.822;4.376;2022-10-23T04:31:10;15.50;99.90
23827;DHT22;12094;50.822;4.376;2022-10-23T04:33:40;15.50;99.90
23827;DHT22;12094;50.822;4.376;2022-10-23T04:36:07;15.50;99.90
23827;DHT22;12094;50.822;4.376;2022-10-23T04:38:34;15.50;99.90
23827;DHT22;12094;50.822;4.376;2022-10-23T04:41:04;15.50;99.90
23827;DHT22;12094;50.822;4.376;2022-10-23T04:43:31;15.50;99.90
23827;DHT22;12094;50.822;4.376;2022-10-23T04:45:59;15.60;99.90
23827;DHT22;12094;50.822;4.376;2022-10-23T04:48:26;15.70;99.90
23827;DHT22;12094;50.822;4.376;2022-10-23T04:51:20;15.70;99.90
23827;DHT22;12094;50.822;4.376;2022-10-23T04:53:58;15.60;99.90
23827;DHT22;12094;50.822;4.376;2022-10-23T04:56:42;15.70;99.90
23827;DHT22;12094;50.822;4.376;2022-10-23T04:59:18;15.70;99.90
23827;DHT22;12094;50.822;4.376;2022-10-23T05:01:45;15.80;99.90
23827;DHT22;12094;50.822;4.376;2022-10-23T05:04:13;15.80;99.90
23827;DHT22;12094;50.822;4.376;2022-10-23T05:06:58;15.70;99.90
23827;DHT22;12094;50.822;4.376;2022-10-23T05:09:51;15.70;99.90
23827;DHT22;12094;50.822;4.376;2022-10-23T05:12:26;15.70;99.90
23827;DHT22;12094;50.822;4.376;2022-10-23T05:14:54;15.70;99.90
23827;DHT22;12094;50.822;4.376;2022-10-23T05:17:28;15.70;99.90
23827;DHT22;12094;50.822;4.376;2022-10-23T05:19:57;15.70;99.90
23827;DHT22;12094;50.822;4.376;2022-10-23T05:22:29;15.80;99.90
23827;DHT22;12094;50.822;4.376;2022-10-23T05:24:57;15.70;99.90
23827;DHT22;12094;50.822;4.376;2022-10-23T05:27:25;15.80;99.90
23827;DHT22;12094;50.822;4.376;2022-10-23T05:29:53;15.80;99.90
23827;DHT22;12094;50.822;4.376;2022-10-23T05:32:26;15.80;99.90
23827;DHT22;12094;50.822;4.376;2022-10-23T05:34:56;15.80;99.90
23827;DHT22;12094;50.822;4.376;2022-10-23T05:37:28;15.80;99.90
23827;DHT22;12094;50.822;4.376;2022-10-23T05:40:18;15.90;99.90
23827;DHT22;12094;50.822;4.376;2022-10-23T05:42:47;16.00;99.90
23827;DHT22;12094;50.822;4.376;2022-10-23T05:45:19;16.00;99.90
23827;DHT22;12094;50.822;4.376;2022-10-23T05:48:09;15.90;99.90
23827;DHT22;12094;50.822;4.376;2022-10-23T05:51:14;16.00;99.90
23827;DHT22;12094;50.822;4.376;2022-10-23T05:53:54;15.90;99.90
23827;DHT22;12094;50.822;4.376;2022-10-23T05:56:30;15.80;99.90
23827;DHT22;12094;50.822;4.376;2022-10-23T05:59:07;15.80;99.90
23827;DHT22;12094;50.822;4.376;2022-10-23T06:02:03;15.80;99.90
23827;DHT22;12094;50.822;4.376;2022-10-23T06:04:45;15.70;99.90
23827;DHT22;12094;50.822;4.376;2022-10-23T06:07:27;15.70;99.90
23827;DHT22;12094;50.822;4.376;2022-10-23T06:10:05;15.70;99.90
23827;DHT22;12094;50.822;4.376;2022-10-23T06:12:37;15.70;99.90
23827;DHT22;12094;50.822;4.376;2022-10-23T06:15:06;15.70;99.90
23827;DHT22;12094;50.822;4.376;2022-10-23T06:17:53;15.70;99.90
23827;DHT22;12094;50.822;4.376;2022-10-23T06:20:21;15.70;99.90
23827;DHT22;12094;50.822;4.376;2022-10-23T06:23:03;15.60;99.90
23827;DHT22;12094;50.822;4.376;2022-10-23T06:26:03;15.70;99.90
23827;DHT22;12094;50.822;4.376;2022-10-23T06:28:39;15.70;99.90
23827;DHT22;12094;50.822;4.376;2022-10-23T06:31:08;15.70;99.90
23827;DHT22;12094;50.822;4.376;2022-10-23T06:33:36;15.80;99.90
23827;DHT22;12094;50.822;4.376;2022-10-23T06:36:05;15.80;99.90
23827;DHT22;12094;50.822;4.376;2022-10-23T06:38:34;15.70;99.90
23827;DHT22;12094;50.822;4.376;2022-10-23T06:41:12;15.70;99.90
23827;DHT22;12094;50.822;4.376;2022-10-23T06:43:40;15.70;99.90
23827;DHT22;12094;50.822;4.376;2022-10-23T06:46:17;15.70;99.90
23827;DHT22;12094;50.822;4.376;2022-10-23T06:49:17;15.80;99.90
23827;DHT22;12094;50.822;4.376;2022-10-23T06:51:47;15.80;99.90
23827;DHT22;12094;50.822;4.376;2022-10-23T06:54:16;15.90;99.90
23827;DHT22;12094;50.822;4.376;2022-10-23T06:56:50;15.90;99.90
23827;DHT22;12094;50.822;4.376;2022-10-23T06:59:21;16.00;99.90
23827;DHT22;12094;50.822;4.376;2022-10-23T07:01:52;16.00;99.90
23827;DHT22;12094;50.822;4.376;2022-10-23T07:04:19;16.00;99.90
23827;DHT22;12094;50.822;4.376;2022-10-23T07:06:48;16.10;99.90
23827;DHT22;12094;50.822;4.376;2022-10-23T07:09:22;16.10;99.90
23827;DHT22;12094;50.822;4.376;2022-10-23T07:11:54;16.20;99.90
23827;DHT22;12094;50.822;4.376;2022-10-23T07:14:39;16.30;99.90
23827;DHT22;12094;50.822;4.376;2022-10-23T07:17:07;16.40;99.90
23827;DHT22;12094;50.822;4.376;2022-10-23T07:19:44;16.40;99.90
23827;DHT22;12094;50.822;4.376;2022-10-23T07:22:15;16.40;99.90
23827;DHT22;12094;50.822;4.376;2022-10-23T07:24:57;16.40;99.90
23827;DHT22;12094;50.822;4.376;2022-10-23T07:27:37;16.50;99.90
23827;DHT22;12094;50.822;4.376;2022-10-23T07:30:08;16.60;99.90
23827;DHT22;12094;50.822;4.376;2022-10-23T07:32:44;16.60;99.90
23827;DHT22;12094;50.822;4.376;2022-10-23T07:35:41;16.60;99.90
23827;DHT22;12094;50.822;4.376;2022-10-23T07:38:12;16.60;99.90
23827;DHT22;12094;50.822;4.376;2022-10-23T07:40:44;16.70;99.90
23827;DHT22;12094;50.822;4.376;2022-10-23T07:43:16;16.70;99.90
23827;DHT22;12094;50.822;4.376;2022-10-23T07:45:48;16.60;99.90
23827;DHT22;12094;50.822;4.376;2022-10-23T07:48:22;16.60;99.90
23827;DHT22;12094;50.822;4.376;2022-10-23T07:51:13;16.60;99.90
23827;DHT22;12094;50.822;4.376;2022-10-23T07:53:48;16.60;99.90
23827;DHT22;12094;50.822;4.376;2022-10-23T07:56:29;16.70;99.90
23827;DHT22;12094;50.822;4.376;2022-10-23T07:59:20;16.80;99.90
23827;DHT22;12094;50.822;4.376;2022-10-23T08:01:54;16.80;99.90
23827;DHT22;12094;50.822;4.376;2022-10-23T08:04:34;16.80;99.90
23827;DHT22;12094;50.822;4.376;2022-10-23T08:07:13;16.90;99.90
23827;DHT22;12094;50.822;4.376;2022-10-23T08:09:42;17.00;99.90
23827;DHT22;12094;50.822;4.376;2022-10-23T08:12:10;17.00;99.90
23827;DHT22;12094;50.822;4.376;2022-10-23T08:14:37;17.00;99.90
23827;DHT22;12094;50.822;4.376;2022-10-23T08:17:05;17.10;99.90
23827;DHT22;12094;50.822;4.376;2022-10-23T08:20:10;17.00;99.90
23827;DHT22;12094;50.822;4.376;2022-10-23T08:22:41;16.90;99.90
23827;DHT22;12094;50.822;4.376;2022-10-23T08:25:10;17.00;99.90
23827;DHT22;12094;50.822;4.376;2022-10-23T08:27:37;17.00;99.90
23827;DHT22;12094;50.822;4.376;2022-10-23T08:30:05;17.10;99.90
23827;DHT22;12094;50.822;4.376;2022-10-23T08:32:32;17.10;99.90
23827;DHT22;12094;50.822;4.376;2022-10-23T08:35:01;17.10;99.90
23827;DHT22;12094;50.822;4.376;2022-10-23T08:37:31;17.10;99.90
23827;DHT22;12094;50.822;4.376;2022-10-23T08:39:58;17.30;99.90
23827;DHT22;12094;50.822;4.376;2022-10-23T08:42:49;17.20;99.90
23827;DHT22;12094;50.822;4.376;2022-10-23T08:45:30;17.20;99.90
23827;DHT22;12094;50.822;4.376;2022-10-23T08:48:20;17.20;99.90
23827;DHT22;12094;50.822;4.376;2022-10-23T08:51:17;17.30;99.90
23827;DHT22;12094;50.822;4.376;2022-10-23T08:53:58;17.30;99.90
23827;DHT22;12094;50.822;4.376;2022-10-23T08:56:30;17.20;99.90
23827;DHT22;12094;50.822;4.376;2022-10-23T09:02:00;17.30;99.90
23827;DHT22;12094;50.822;4.376;2022-10-23T09:04:28;17.30;99.90
23827;DHT22;12094;50.822;4.376;2022-10-23T09:09:41;17.10;99.90
23827;DHT22;12094;50.822;4.376;2022-10-23T09:12:14;17.10;99.90
23827;DHT22;12094;50.822;4.376;2022-10-23T09:17:36;17.10;99.90
23827;DHT22;12094;50.822;4.376;2022-10-23T09:22:38;17.30;99.90
23827;DHT22;12094;50.822;4.376;2022-10-23T09:25:16;17.40;99.90
23827;DHT22;12094;50.822;4.376;2022-10-23T09:27:49;17.40;99.90
23827;DHT22;12094;50.822;4.376;2022-10-23T09:30:29;17.40;99.90
23827;DHT22;12094;50.822;4.376;2022-10-23T09:32:58;17.50;99.90
23827;DHT22;12094;50.822;4.376;2022-10-23T09:35:28;17.60;99.90
23827;DHT22;12094;50.822;4.376;2022-10-23T09:37:58;17.80;99.90
23827;DHT22;12094;50.822;4.376;2022-10-23T09:40:41;17.90;99.90
23827;DHT22;12094;50.822;4.376;2022-10-23T09:43:17;17.90;99.90
23827;DHT22;12094;50.822;4.376;2022-10-23T09:46:09;17.80;99.90
23827;DHT22;12094;50.822;4.376;2022-10-23T09:48:38;17.80;99.90
23827;DHT22;12094;50.822;4.376;2022-10-23T09:51:18;17.70;99.90
23827;DHT22;12094;50.822;4.376;2022-10-23T09:53:52;17.80;99.90
23827;DHT22;12094;50.822;4.376;2022-10-23T09:56:34;17.80;99.90
23827;DHT22;12094;50.822;4.376;2022-10-23T10:02:32;17.90;99.90
23827;DHT22;12094;50.822;4.376;2022-10-23T10:08:14;17.80;99.90
23827;DHT22;12094;50.822;4.376;2022-10-23T10:10:49;17.80;99.90
23827;DHT22;12094;50.822;4.376;2022-10-23T10:19:17;18.00;99.90
23827;DHT22;12094;50.822;4.376;2022-10-23T10:24:58;17.90;99.90
23827;DHT22;12094;50.822;4.376;2022-10-23T10:30:21;18.20;99.90
23827;DHT22;12094;50.822;4.376;2022-10-23T10:43:19;18.20;99.90
23827;DHT22;12094;50.822;4.376;2022-10-23T10:49:15;18.30;99.90
23827;DHT22;12094;50.822;4.376;2022-10-23T10:57:49;18.30;99.90
23827;DHT22;12094;50.822;4.376;2022-10-23T11:00:27;18.30;99.90
23827;DHT22;12094;50.822;4.376;2022-10-23T11:05:46;18.50;99.90
23827;DHT22;12094;50.822;4.376;2022-10-23T11:08:44;18.60;99.90
23827;DHT22;12094;50.822;4.376;2022-10-23T11:11:32;18.60;99.90
23827;DHT22;12094;50.822;4.376;2022-10-23T11:14:02;18.60;99.90
23827;DHT22;12094;50.822;4.376;2022-10-23T11:16:38;18.60;99.90
23827;DHT22;12094;50.822;4.376;2022-10-23T11:19:25;18.70;99.90
23827;DHT22;12094;50.822;4.376;2022-10-23T11:22:36;18.70;99.90
23827;DHT22;12094;50.822;4.376;2022-10-23T11:25:50;18.90;99.90
23827;DHT22;12094;50.822;4.376;2022-10-23T11:31:34;19.00;99.90
23827;DHT22;12094;50.822;4.376;2022-10-23T11:37:01;19.30;99.90
23827;DHT22;12094;50.822;4.376;2022-10-23T11:39:32;19.20;99.90
23827;DHT22;12094;50.822;4.376;2022-10-23T11:44:46;19.50;99.90
23827;DHT22;12094;50.822;4.376;2022-10-23T11:47:33;19.60;99.90
23827;DHT22;12094;50.822;4.376;2022-10-23T11:52:38;19.70;99.90
23827;DHT22;12094;50.822;4.376;2022-10-23T11:55:26;19.70;99.90
23827;DHT22;12094;50.822;4.376;2022-10-23T11:58:17;19.70;99.90
23827;DHT22;12094;50.822;4.376;2022-10-23T12:01:01;20.00;99.90
23827;DHT22;12094;50.822;4.376;2022-10-23T12:03:46;20.10;99.90
23827;DHT22;12094;50.822;4.376;2022-10-23T12:06:27;20.10;99.90
23827;DHT22;12094;50.822;4.376;2022-10-23T12:09:03;20.20;99.90
23827;DHT22;12094;50.822;4.376;2022-10-23T12:11:46;20.10;99.90
23827;DHT22;12094;50.822;4.376;2022-10-23T12:14:40;20.10;99.90
23827;DHT22;12094;50.822;4.376;2022-10-23T12:19:55;20.10;99.90
23827;DHT22;12094;50.822;4.376;2022-10-23T12:22:33;20.20;99.90
23827;DHT22;12094;50.822;4.376;2022-10-23T12:25:13;20.30;99.90
23827;DHT22;12094;50.822;4.376;2022-10-23T12:28:29;20.40;99.90
23827;DHT22;12094;50.822;4.376;2022-10-23T12:39:33;20.20;99.90
23827;DHT22;12094;50.822;4.376;2022-10-23T12:42:04;20.30;99.90
23827;DHT22;12094;50.822;4.376;2022-10-23T12:44:31;20.50;99.90
23827;DHT22;12094;50.822;4.376;2022-10-23T12:47:03;20.60;99.90
23827;DHT22;12094;50.822;4.376;2022-10-23T12:49:31;20.70;99.90
23827;DHT22;12094;50.822;4.376;2022-10-23T12:52:02;20.70;99.90
23827;DHT22;12094;50.822;4.376;2022-10-23T12:54:31;20.80;99.90
23827;DHT22;12094;50.822;4.376;2022-10-23T12:56:58;20.90;99.90
23827;DHT22;12094;50.822;4.376;2022-10-23T12:59:32;21.00;99.90
23827;DHT22;12094;50.822;4.376;2022-10-23T13:02:23;20.90;99.90
23827;DHT22;12094;50.822;4.376;2022-10-23T13:04:52;20.90;99.90
23827;DHT22;12094;50.822;4.376;2022-10-23T13:07:22;20.90;99.90
23827;DHT22;12094;50.822;4.376;2022-10-23T13:09:52;21.00;99.90
23827;DHT22;12094;50.822;4.376;2022-10-23T13:12:31;20.90;99.90
23827;DHT22;12094;50.822;4.376;2022-10-23T13:22:43;20.70;99.90
23827;DHT22;12094;50.822;4.376;2022-10-23T13:25:23;20.80;99.90
23827;DHT22;12094;50.822;4.376;2022-10-23T13:28:01;20.70;99.90
23827;DHT22;12094;50.822;4.376;2022-10-23T13:30:35;20.60;99.90
23827;DHT22;12094;50.822;4.376;2022-10-23T13:33:18;20.70;99.90
23827;DHT22;12094;50.822;4.376;2022-10-23T13:36:01;20.70;99.90
23827;DHT22;12094;50.822;4.376;2022-10-23T13:41:16;20.70;99.90
23827;DHT22;12094;50.822;4.376;2022-10-23T13:43:44;20.70;99.90
23827;DHT22;12094;50.822;4.376;2022-10-23T13:46:14;20.60;99.90
23827;DHT22;12094;50.822;4.376;2022-10-23T13:48:41;20.70;99.90
23827;DHT22;12094;50.822;4.376;2022-10-23T13:51:12;20.60;99.90
23827;DHT22;12094;50.822;4.376;2022-10-23T13:54:08;20.60;99.90
23827;DHT22;12094;50.822;4.376;2022-10-23T13:57:28;20.50;99.90
23827;DHT22;12094;50.822;4.376;2022-10-23T14:00:27;20.70;99.90
23827;DHT22;12094;50.822;4.376;2022-10-23T14:03:14;20.80;99.90
23827;DHT22;12094;50.822;4.376;2022-10-23T14:05:42;20.90;99.90
23827;DHT22;12094;50.822;4.376;2022-10-23T14:08:13;20.90;99.90
23827;DHT22;12094;50.822;4.376;2022-10-23T14:10:44;21.00;99.90
23827;DHT22;12094;50.822;4.376;2022-10-23T14:13:11;20.90;99.90
23827;DHT22;12094;50.822;4.376;2022-10-23T14:15:39;21.00;99.90
23827;DHT22;12094;50.822;4.376;2022-10-23T14:18:07;21.00;99.90
23827;DHT22;12094;50.822;4.376;2022-10-23T14:20:43;21.10;99.90
23827;DHT22;12094;50.822;4.376;2022-10-23T14:23:16;20.90;99.90
23827;DHT22;12094;50.822;4.376;2022-10-23T14:25:43;20.80;99.90
23827;DHT22;12094;50.822;4.376;2022-10-23T14:28:12;20.70;99.90
23827;DHT22;12094;50.822;4.376;2022-10-23T14:30:40;20.70;99.90
23827;DHT22;12094;50.822;4.376;2022-10-23T14:33:08;20.70;99.90
23827;DHT22;12094;50.822;4.376;2022-10-23T14:35:39;20.70;99.90
23827;DHT22;12094;50.822;4.376;2022-10-23T14:38:21;20.70;99.90
23827;DHT22;12094;50.822;4.376;2022-10-23T14:40:48;20.80;99.90
23827;DHT22;12094;50.822;4.376;2022-10-23T14:43:17;20.80;99.90
23827;DHT22;12094;50.822;4.376;2022-10-23T14:45:44;20.70;99.90
23827;DHT22;12094;50.822;4.376;2022-10-23T14:48:11;20.70;99.90
23827;DHT22;12094;50.822;4.376;2022-10-23T14:50:52;20.60;99.90
23827;DHT22;12094;50.822;4.376;2022-10-23T14:53:23;20.50;99.90
23827;DHT22;12094;50.822;4.376;2022-10-23T14:56:00;20.50;99.90
23827;DHT22;12094;50.822;4.376;2022-10-23T14:58:41;20.60;99.90
23827;DHT22;12094;50.822;4.376;2022-10-23T15:01:11;20.40;99.90
23827;DHT22;12094;50.822;4.376;2022-10-23T15:03:46;20.40;99.90
23827;DHT22;12094;50.822;4.376;2022-10-23T15:06:20;20.30;99.90
23827;DHT22;12094;50.822;4.376;2022-10-23T15:08:52;20.30;99.90
23827;DHT22;12094;50.822;4.376;2022-10-23T15:11:22;20.30;99.90
23827;DHT22;12094;50.822;4.376;2022-10-23T15:14:03;20.20;99.90
23827;DHT22;12094;50.822;4.376;2022-10-23T15:16:45;20.30;99.90
23827;DHT22;12094;50.822;4.376;2022-10-23T15:19:29;20.30;99.90
23827;DHT22;12094;50.822;4.376;2022-10-23T15:21:56;20.30;99.90
23827;DHT22;12094;50.822;4.376;2022-10-23T15:24:23;20.20;99.90
23827;DHT22;12094;50.822;4.376;2022-10-23T15:26:50;20.20;99.90
23827;DHT22;12094;50.822;4.376;2022-10-23T15:29:18;20.20;99.90
23827;DHT22;12094;50.822;4.376;2022-10-23T15:31:57;20.10;99.90
23827;DHT22;12094;50.822;4.376;2022-10-23T15:34:26;20.10;99.90
23827;DHT22;12094;50.822;4.376;2022-10-23T15:36:55;20.00;99.90
23827;DHT22;12094;50.822;4.376;2022-10-23T15:39:28;20.00;99.90
23827;DHT22;12094;50.822;4.376;2022-10-23T15:42:02;20.00;99.90
23827;DHT22;12094;50.822;4.376;2022-10-23T15:44:31;20.00;99.90
23827;DHT22;12094;50.822;4.376;2022-10-23T15:46:58;20.00;99.90
23827;DHT22;12094;50.822;4.376;2022-10-23T15:49:26;20.00;99.90
23827;DHT22;12094;50.822;4.376;2022-10-23T15:51:58;19.90;99.90
23827;DHT22;12094;50.822;4.376;2022-10-23T15:54:26;20.00;99.90
23827;DHT22;12094;50.822;4.376;2022-10-23T15:56:58;20.00;99.90
23827;DHT22;12094;50.822;4.376;2022-10-23T15:59:28;20.00;99.90
23827;DHT22;12094;50.822;4.376;2022-10-23T16:01:57;19.90;99.90
23827;DHT22;12094;50.822;4.376;2022-10-23T16:04:25;19.90;99.90
23827;DHT22;12094;50.822;4.376;2022-10-23T16:06:53;19.80;99.90
23827;DHT22;12094;50.822;4.376;2022-10-23T16:09:20;19.80;99.90
23827;DHT22;12094;50.822;4.376;2022-10-23T16:11:48;19.60;99.90
23827;DHT22;12094;50.822;4.376;2022-10-23T16:14:16;19.50;99.90
23827;DHT22;12094;50.822;4.376;2022-10-23T16:16:44;19.50;99.90
23827;DHT22;12094;50.822;4.376;2022-10-23T16:19:11;19.40;99.90
23827;DHT22;12094;50.822;4.376;2022-10-23T16:21:40;19.40;99.90
23827;DHT22;12094;50.822;4.376;2022-10-23T16:24:10;19.40;99.90
23827;DHT22;12094;50.822;4.376;2022-10-23T16:26:37;19.30;99.90
23827;DHT22;12094;50.822;4.376;2022-10-23T16:29:07;19.20;99.90
23827;DHT22;12094;50.822;4.376;2022-10-23T16:31:34;19.20;99.90
23827;DHT22;12094;50.822;4.376;2022-10-23T16:34:03;19.20;99.90
23827;DHT22;12094;50.822;4.376;2022-10-23T16:36:32;19.20;99.90
23827;DHT22;12094;50.822;4.376;2022-10-23T16:39:15;19.20;99.90
23827;DHT22;12094;50.822;4.376;2022-10-23T16:42:03;19.10;99.90
23827;DHT22;12094;50.822;4.376;2022-10-23T16:44:59;19.00;99.90
23827;DHT22;12094;50.822;4.376;2022-10-23T16:47:29;19.10;99.90
23827;DHT22;12094;50.822;4.376;2022-10-23T16:49:59;19.10;99.90
23827;DHT22;12094;50.822;4.376;2022-10-23T16:52:26;19.00;99.90
23827;DHT22;12094;50.822;4.376;2022-10-23T16:54:53;19.00;99.90
23827;DHT22;12094;50.822;4.376;2022-10-23T16:57:20;19.00;99.90
23827;DHT22;12094;50.822;4.376;2022-10-23T16:59:48;19.00;99.90
23827;DHT22;12094;50.822;4.376;2022-10-23T17:02:15;19.00;99.90
23827;DHT22;12094;50.822;4.376;2022-10-23T17:04:42;19.00;99.90
23827;DHT22;12094;50.822;4.376;2022-10-23T17:07:09;19.10;99.90
23827;DHT22;12094;50.822;4.376;2022-10-23T17:09:39;19.10;99.90
23827;DHT22;12094;50.822;4.376;2022-10-23T17:12:08;19.10;99.90
23827;DHT22;12094;50.822;4.376;2022-10-23T17:14:35;19.10;99.90
23827;DHT22;12094;50.822;4.376;2022-10-23T17:17:04;19.10;99.90
23827;DHT22;12094;50.822;4.376;2022-10-23T17:19:32;19.10;99.90
23827;DHT22;12094;50.822;4.376;2022-10-23T17:22:11;19.10;99.90
23827;DHT22;12094;50.822;4.376;2022-10-23T17:24:41;19.10;99.90
23827;DHT22;12094;50.822;4.376;2022-10-23T17:27:12;19.10;99.90
23827;DHT22;12094;50.822;4.376;2022-10-23T17:29:47;19.10;99.90
23827;DHT22;12094;50.822;4.376;2022-10-23T17:32:15;19.10;99.90
23827;DHT22;12094;50.822;4.376;2022-10-23T17:34:43;19.10;99.90
23827;DHT22;12094;50.822;4.376;2022-10-23T17:37:12;19.00;99.90
23827;DHT22;12094;50.822;4.376;2022-10-23T17:39:40;19.10;99.90
23827;DHT22;12094;50.822;4.376;2022-10-23T17:42:09;19.10;99.90
23827;DHT22;12094;50.822;4.376;2022-10-23T17:44:37;19.20;99.90
23827;DHT22;12094;50.822;4.376;2022-10-23T17:47:05;19.10;99.90
23827;DHT22;12094;50.822;4.376;2022-10-23T17:49:32;19.10;99.90
23827;DHT22;12094;50.822;4.376;2022-10-23T17:52:02;19.00;99.90
23827;DHT22;12094;50.822;4.376;2022-10-23T17:54:29;19.00;99.90
23827;DHT22;12094;50.822;4.376;2022-10-23T17:56:56;19.00;99.90
23827;DHT22;12094;50.822;4.376;2022-10-23T17:59:24;19.00;99.90